Time;durP1;ratioP1;P1;durP2;ratioP2;P2;SDS_P1;SDS_P2;PMS_P1;PMS_P2;Temp;Humidity;BMP_temperature;BMP_pressure;BME280_temperature;BME280_humidity;BME280_pressure;Samples;Min_cycle;Max_cycle;Signal;HPM_P1;HPM_P2
2022/03/28 00:00:49;;;;;;;17.33;9.25;;;;;;;;;;5096286;28;20044;-81
2022/03/28 00:03:35;;;;;;;22.10;10.48;;;;;;;;;;5096539;28;20043;-82
2022/03/28 00:06:21;;;;;;;30.67;11.77;;;;;;;;;;5096010;28;20473;-79
2022/03/28 00:09:07;;;;;;;25.30;12.52;;;;;;;;;;5096451;28;20048;-81
2022/03/28 00:11:52;;;;;;;31.58;12.45;;;;;;;;;;5096393;28;20056;-81
2022/03/28 00:14:37;;;;;;;24.23;11.60;;;;;;;;;;5096099;28;20052;-79
2022/03/28 00:17:23;;;;;;;25.92;10.95;;;;;;;;;;5096548;28;20040;-79
2022/03/28 00:20:11;;;;;;;23.42;10.75;;;;;;;;;;5087755;28;20044;-82
2022/03/28 00:22:56;;;;;;;19.85;10.38;;;;;;;;;;5095843;28;20052;-79
2022/03/28 00:25:44;;;;;;;21.95;12.40;;;;;;;;;;5081555;28;20048;-81
2022/03/28 00:28:30;;;;;;;24.17;11.95;;;;;;;;;;5095969;28;20040;-80
2022/03/28 00:31:15;;;;;;;22.45;12.13;;;;;;;;;;5087548;28;20040;-81
2022/03/28 00:34:01;;;;;;;27.15;12.90;;;;;;;;;;5087039;28;20044;-82
2022/03/28 00:36:51;;;;;;;31.05;11.98;;;;;;;;;;5095694;28;20040;-82
2022/03/28 00:39:36;;;;;;;32.03;12.75;;;;;;;;;;5087666;28;20051;-81
2022/03/28 00:42:21;;;;;;;37.00;12.60;;;;;;;;;;5095592;28;20047;-81
2022/03/28 00:45:07;;;;;;;27.00;13.00;;;;;;;;;;5096249;28;20052;-82
2022/03/28 00:47:52;;;;;;;26.58;13.60;;;;;;;;;;5080177;28;20048;-81
2022/03/28 00:50:38;;;;;;;31.70;15.45;;;;;;;;;;5095122;28;20036;-79
2022/03/28 00:53:24;;;;;;;37.72;17.23;;;;;;;;;;5095915;28;20043;-81
2022/03/28 00:56:10;;;;;;;35.97;17.80;;;;;;;;;;5086555;28;20048;-81
2022/03/28 00:58:58;;;;;;;42.85;19.20;;;;;;;;;;5095173;28;20048;-81
2022/03/28 01:01:46;;;;;;;40.30;19.65;;;;;;;;;;5080658;28;20484;-80
2022/03/28 01:04:32;;;;;;;45.55;21.40;;;;;;;;;;5096119;28;20055;-80
2022/03/28 01:07:18;;;;;;;49.83;21.92;;;;;;;;;;5107029;28;20044;-81
2022/03/28 01:10:04;;;;;;;54.97;21.95;;;;;;;;;;5103102;28;20048;-80
2022/03/28 01:12:49;;;;;;;47.33;22.23;;;;;;;;;;5100367;28;20039;-81
2022/03/28 01:15:34;;;;;;;43.75;21.00;;;;;;;;;;5094853;28;20040;-80
2022/03/28 01:18:20;;;;;;;49.28;22.48;;;;;;;;;;5094849;28;20484;-79
2022/03/28 01:21:06;;;;;;;43.67;20.25;;;;;;;;;;5101929;28;20392;-80
2022/03/28 01:23:51;;;;;;;42.47;18.88;;;;;;;;;;5079450;28;20040;-82
2022/03/28 01:26:37;;;;;;;46.13;19.73;;;;;;;;;;5094412;28;20484;-82
2022/03/28 01:29:22;;;;;;;36.95;16.20;;;;;;;;;;5094323;28;20044;-82
2022/03/28 01:32:08;;;;;;;39.85;15.25;;;;;;;;;;5086156;28;20048;-81
2022/03/28 01:34:53;;;;;;;28.45;13.52;;;;;;;;;;5079882;28;20040;-81
2022/03/28 01:37:38;;;;;;;25.38;12.18;;;;;;;;;;5094446;28;20044;-81
2022/03/28 01:40:24;;;;;;;23.67;12.43;;;;;;;;;;5094447;28;20048;-81
2022/03/28 01:43:10;;;;;;;30.33;13.98;;;;;;;;;;5079109;28;20036;-81
2022/03/28 01:45:55;;;;;;;26.77;13.20;;;;;;;;;;5094450;28;20051;-81
2022/03/28 01:48:40;;;;;;;29.95;11.45;;;;;;;;;;5094521;28;20040;-81
2022/03/28 01:51:26;;;;;;;20.80;10.73;;;;;;;;;;5094328;28;20044;-80
2022/03/28 01:54:12;;;;;;;19.13;10.73;;;;;;;;;;5071432;28;20044;-79
2022/03/28 01:56:57;;;;;;;24.67;11.88;;;;;;;;;;5093854;28;20043;-82
2022/03/28 01:59:43;;;;;;;25.88;11.80;;;;;;;;;;5094062;28;20040;-81
2022/03/28 02:02:29;;;;;;;35.63;19.55;;;;;;;;;;5093991;28;20056;-81
2022/03/28 02:05:15;;;;;;;41.65;24.38;;;;;;;;;;5100547;28;20047;-81
2022/03/28 02:08:01;;;;;;;37.08;21.83;;;;;;;;;;5094484;28;20048;-80
2022/03/28 02:10:47;;;;;;;38.45;22.55;;;;;;;;;;5094465;28;20040;-81
2022/03/28 02:13:31;;;;;;;47.60;25.77;;;;;;;;;;5094547;28;20043;-80
2022/03/28 02:16:16;;;;;;;43.88;23.52;;;;;;;;;;5094432;28;20044;-80
2022/03/28 02:19:02;;;;;;;39.03;20.77;;;;;;;;;;5094292;28;20048;-81
2022/03/28 02:21:48;;;;;;;36.70;19.20;;;;;;;;;;5093853;28;20484;-81
2022/03/28 02:24:33;;;;;;;29.15;14.25;;;;;;;;;;5094658;28;20052;-80
2022/03/28 02:27:19;;;;;;;26.90;13.07;;;;;;;;;;5094381;28;20040;-78
2022/03/28 02:30:07;;;;;;;21.42;10.32;;;;;;;;;;5093781;28;20044;-79
2022/03/28 02:32:53;;;;;;;22.27;9.45;;;;;;;;;;5093639;28;20040;-81
2022/03/28 02:35:40;;;;;;;16.08;9.40;;;;;;;;;;5093522;28;20048;-81
2022/03/28 02:38:26;;;;;;;15.75;9.13;;;;;;;;;;5093851;28;20048;-79
2022/03/28 02:41:13;;;;;;;19.77;9.13;;;;;;;;;;5093561;28;20058;-81
2022/03/28 02:43:58;;;;;;;20.27;9.18;;;;;;;;;;5093330;28;20488;-81
2022/03/28 02:46:45;;;;;;;19.73;9.63;;;;;;;;;;5093777;28;20048;-80
2022/03/28 02:49:31;;;;;;;19.35;10.60;;;;;;;;;;5085403;28;20044;-81
2022/03/28 02:52:17;;;;;;;23.33;11.60;;;;;;;;;;5093569;28;20052;-81
2022/03/28 02:55:03;;;;;;;24.38;13.20;;;;;;;;;;5093755;28;20040;-80
2022/03/28 02:57:48;;;;;;;25.27;12.48;;;;;;;;;;5093073;28;20044;-82
2022/03/28 03:00:35;;;;;;;19.50;11.38;;;;;;;;;;5093819;28;20043;-82
2022/03/28 03:03:20;;;;;;;22.80;9.15;;;;;;;;;;5093931;28;20044;-81
2022/03/28 03:06:05;;;;;;;20.55;9.80;;;;;;;;;;5093142;28;20044;-81
2022/03/28 03:08:51;;;;;;;13.52;7.85;;;;;;;;;;5085038;28;20044;-82
2022/03/28 03:11:36;;;;;;;17.95;7.55;;;;;;;;;;5077724;28;20040;-80
2022/03/28 03:14:22;;;;;;;14.15;7.53;;;;;;;;;;5089883;28;20056;-83
2022/03/28 03:17:07;;;;;;;31.48;10.80;;;;;;;;;;5092865;28;20052;-81
2022/03/28 03:19:52;;;;;;;33.28;13.93;;;;;;;;;;5075542;28;20032;-79
2022/03/28 03:22:38;;;;;;;32.15;14.25;;;;;;;;;;5073237;28;20048;-81
2022/03/28 03:25:24;;;;;;;27.88;14.18;;;;;;;;;;5077611;28;20048;-81
2022/03/28 03:28:09;;;;;;;34.65;13.63;;;;;;;;;;5082981;28;20041;-81
2022/03/28 03:30:55;;;;;;;33.22;14.38;;;;;;;;;;5080040;28;20404;-81
2022/03/28 03:33:41;;;;;;;31.10;13.88;;;;;;;;;;5087676;28;20041;-79
2022/03/28 03:36:26;;;;;;;24.45;11.48;;;;;;;;;;5087895;28;20040;-81
2022/03/28 03:39:12;;;;;;;27.10;11.80;;;;;;;;;;5093211;28;20040;-81
2022/03/28 03:41:57;;;;;;;27.42;10.75;;;;;;;;;;5076349;28;20060;-83
2022/03/28 03:44:43;;;;;;;20.63;10.43;;;;;;;;;;5083586;28;20036;-82
2022/03/28 03:47:28;;;;;;;26.25;10.90;;;;;;;;;;5081388;28;20414;-80
2022/03/28 03:50:14;;;;;;;21.65;10.55;;;;;;;;;;5069476;28;20048;-81
2022/03/28 03:53:00;;;;;;;26.67;10.45;;;;;;;;;;5080082;28;20040;-79
2022/03/28 03:55:48;;;;;;;19.13;10.18;;;;;;;;;;5073966;28;20036;-82
2022/03/28 03:58:34;;;;;;;35.80;11.40;;;;;;;;;;5103042;28;20043;-80
2022/03/28 04:01:21;;;;;;;32.80;11.80;;;;;;;;;;5098113;28;20484;-81
2022/03/28 04:04:06;;;;;;;19.15;9.63;;;;;;;;;;5096189;28;20044;-81
2022/03/28 04:06:52;;;;;;;26.98;11.32;;;;;;;;;;5081419;28;20040;-81
2022/03/28 04:09:37;;;;;;;24.60;9.77;;;;;;;;;;5094513;28;20044;-81
2022/03/28 04:12:23;;;;;;;19.48;10.65;;;;;;;;;;5076173;28;20048;-82
2022/03/28 04:15:10;;;;;;;27.17;10.32;;;;;;;;;;5082383;28;20044;-80
2022/03/28 04:17:56;;;;;;;21.30;10.25;;;;;;;;;;5092253;28;20052;-80
2022/03/28 04:20:42;;;;;;;23.02;10.68;;;;;;;;;;5078009;28;20424;-81
2022/03/28 04:23:27;;;;;;;19.75;10.30;;;;;;;;;;5060643;28;20045;-81
2022/03/28 04:26:14;;;;;;;19.85;10.40;;;;;;;;;;5094945;28;20048;-82
2022/03/28 04:28:59;;;;;;;25.75;12.73;;;;;;;;;;5069386;28;20032;-80
2022/03/28 04:31:45;;;;;;;41.88;18.40;;;;;;;;;;5095711;28;20048;-80
2022/03/28 04:34:30;;;;;;;99.68;40.45;;;;;;;;;;5083941;28;20040;-81
2022/03/28 04:37:16;;;;;;;59.97;21.20;;;;;;;;;;5090345;28;20048;-81
2022/03/28 04:40:04;;;;;;;57.67;23.13;;;;;;;;;;5084454;28;20057;-80
2022/03/28 04:42:50;;;;;;;89.90;36.60;;;;;;;;;;5078060;28;20496;-81
2022/03/28 04:45:36;;;;;;;78.18;30.60;;;;;;;;;;5087382;28;20040;-82
2022/03/28 04:48:23;;;;;;;73.35;31.65;;;;;;;;;;5088897;28;20045;-81
2022/03/28 04:51:08;;;;;;;72.50;30.52;;;;;;;;;;5092164;28;20044;-80
2022/03/28 04:53:54;;;;;;;84.80;33.30;;;;;;;;;;5081515;28;20400;-80
2022/03/28 04:56:39;;;;;;;71.60;32.80;;;;;;;;;;5088241;28;20037;-80
2022/03/28 04:59:25;;;;;;;76.68;32.17;;;;;;;;;;5075038;28;20044;-81
2022/03/28 05:02:10;;;;;;;81.25;33.83;;;;;;;;;;5083051;28;20040;-83
2022/03/28 05:04:56;;;;;;;85.63;31.67;;;;;;;;;;5093318;28;20048;-82
2022/03/28 05:07:42;;;;;;;72.85;28.65;;;;;;;;;;5101386;28;20047;-80
2022/03/28 05:10:27;;;;;;;71.53;32.53;;;;;;;;;;5085744;28;20039;-81
2022/03/28 05:13:13;;;;;;;73.60;31.20;;;;;;;;;;5094855;28;20040;-81
2022/03/28 05:15:58;;;;;;;85.70;29.13;;;;;;;;;;5094809;28;20040;-82
2022/03/28 05:18:44;;;;;;;58.42;23.88;;;;;;;;;;5094803;28;20056;-82
2022/03/28 05:21:30;;;;;;;60.85;27.10;;;;;;;;;;5094784;28;20044;-83
2022/03/28 05:24:15;;;;;;;45.25;22.48;;;;;;;;;;5094576;28;20048;-82
2022/03/28 05:27:00;;;;;;;71.32;28.90;;;;;;;;;;5094889;28;20048;-83
2022/03/28 05:29:47;;;;;;;56.72;24.83;;;;;;;;;;5094899;28;20040;-82
2022/03/28 05:32:33;;;;;;;108.78;34.35;;;;;;;;;;5094536;28;20052;-82
2022/03/28 05:35:18;;;;;;;94.25;31.85;;;;;;;;;;5094484;28;20036;-83
2022/03/28 05:38:04;;;;;;;53.25;23.35;;;;;;;;;;5094442;28;20392;-83
2022/03/28 05:40:50;;;;;;;77.57;33.25;;;;;;;;;;5094511;28;20044;-83
2022/03/28 05:43:36;;;;;;;69.85;29.30;;;;;;;;;;5101770;28;20056;-83
2022/03/28 05:46:22;;;;;;;48.28;21.83;;;;;;;;;;5086174;28;20048;-84
2022/03/28 05:49:07;;;;;;;51.08;22.23;;;;;;;;;;5094444;28;20060;-83
2022/03/28 05:51:52;;;;;;;45.95;20.17;;;;;;;;;;5094752;28;20048;-83
2022/03/28 05:54:38;;;;;;;57.58;21.73;;;;;;;;;;5100883;28;20044;-83
2022/03/28 05:57:23;;;;;;;50.40;22.35;;;;;;;;;;5095363;28;20048;-83
2022/03/28 06:00:09;;;;;;;47.67;25.27;;;;;;;;;;5080087;28;20476;-81
2022/03/28 06:02:58;;;;;;;56.67;25.50;;;;;;;;;;5080417;28;20056;-83
2022/03/28 06:05:43;;;;;;;61.88;30.88;;;;;;;;;;5094397;28;20044;-83
2022/03/28 06:08:28;;;;;;;82.78;37.72;;;;;;;;;;5095072;28;20044;-83
2022/03/28 06:11:14;;;;;;;80.00;35.65;;;;;;;;;;5101156;28;20051;-83
2022/03/28 06:13:58;;;;;;;72.47;33.03;;;;;;;;;;5093929;28;20044;-83
2022/03/28 06:16:44;;;;;;;62.42;28.92;;;;;;;;;;5095374;28;20048;-86
2022/03/28 06:19:30;;;;;;;67.60;25.55;;;;;;;;;;5095586;28;20396;-84
2022/03/28 06:22:16;;;;;;;50.35;23.92;;;;;;;;;;5094810;28;20036;-84
2022/03/28 06:25:01;;;;;;;49.85;22.58;;;;;;;;;;5093743;28;20056;-83
2022/03/28 06:27:47;;;;;;;45.08;23.17;;;;;;;;;;5100318;28;20044;-84
2022/03/28 06:30:32;;;;;;;54.90;20.77;;;;;;;;;;5100915;28;20044;-84
2022/03/28 06:33:18;;;;;;;34.63;19.45;;;;;;;;;;5101558;28;20056;-84
2022/03/28 06:36:04;;;;;;;42.40;19.25;;;;;;;;;;5099330;28;20048;-83
2022/03/28 06:38:49;;;;;;;37.50;19.30;;;;;;;;;;5106614;28;20035;-83
2022/03/28 06:41:34;;;;;;;42.03;19.30;;;;;;;;;;5102970;28;20052;-84
2022/03/28 06:44:20;;;;;;;39.92;20.60;;;;;;;;;;5095749;28;20395;-84
2022/03/28 06:47:06;;;;;;;40.88;17.98;;;;;;;;;;5093377;28;20040;-83
2022/03/28 06:49:51;;;;;;;39.55;17.70;;;;;;;;;;5100592;28;20048;-84
2022/03/28 06:52:37;;;;;;;33.35;18.02;;;;;;;;;;5093656;28;20397;-84
2022/03/28 06:55:23;;;;;;;36.45;17.15;;;;;;;;;;5099855;28;20033;-84
2022/03/28 06:58:08;;;;;;;31.30;16.92;;;;;;;;;;5100647;28;20056;-83
2022/03/28 07:00:53;;;;;;;30.73;16.98;;;;;;;;;;5093731;28;20047;-83
2022/03/28 07:03:39;;;;;;;34.38;17.80;;;;;;;;;;5093489;28;20407;-84
2022/03/28 07:06:24;;;;;;;30.95;14.90;;;;;;;;;;5095315;28;20381;-86
2022/03/28 07:09:11;;;;;;;39.25;14.07;;;;;;;;;;5103911;28;20040;-83
2022/03/28 07:11:57;;;;;;;38.97;17.25;;;;;;;;;;5104522;28;20044;-83
2022/03/28 07:14:43;;;;;;;27.98;15.00;;;;;;;;;;5103660;28;20044;-83
2022/03/28 07:17:28;;;;;;;35.00;15.63;;;;;;;;;;5097033;28;20052;-83
2022/03/28 07:20:13;;;;;;;27.85;15.27;;;;;;;;;;5097478;28;20036;-83
2022/03/28 07:23:01;;;;;;;32.55;17.77;;;;;;;;;;5103780;28;20044;-84
2022/03/28 07:25:46;;;;;;;37.38;15.73;;;;;;;;;;5097757;28;20048;-84
2022/03/28 07:28:31;;;;;;;35.72;16.60;;;;;;;;;;5096875;28;20396;-84
2022/03/28 07:31:18;;;;;;;27.65;16.17;;;;;;;;;;5097095;28;20036;-82
2022/03/28 07:37:06;;;;;;;39.67;17.73;;;;;;;;;;5096637;28;20048;-84
2022/03/28 07:39:52;;;;;;;35.90;18.33;;;;;;;;;;5096586;28;20037;-84
2022/03/28 07:42:40;;;;;;;31.05;17.85;;;;;;;;;;5103575;28;20056;-83
2022/03/28 07:45:26;;;;;;;29.75;16.13;;;;;;;;;;5096854;28;20059;-84
2022/03/28 07:48:12;;;;;;;25.08;14.45;;;;;;;;;;5097326;28;20040;-83
2022/03/28 07:50:58;;;;;;;39.50;12.95;;;;;;;;;;5096304;28;20051;-84
2022/03/28 07:53:43;;;;;;;25.52;12.68;;;;;;;;;;5096900;28;20047;-84
2022/03/28 07:56:28;;;;;;;23.67;9.73;;;;;;;;;;5096621;28;20404;-84
2022/03/28 07:59:14;;;;;;;21.48;10.70;;;;;;;;;;5103030;28;20044;-84
2022/03/28 08:01:59;;;;;;;19.45;11.30;;;;;;;;;;5096783;28;20044;-84
2022/03/28 08:04:45;;;;;;;21.50;11.00;;;;;;;;;;5103087;28;20047;-85
2022/03/28 08:07:30;;;;;;;18.52;10.73;;;;;;;;;;5103169;28;20044;-84
2022/03/28 08:10:16;;;;;;;19.77;10.80;;;;;;;;;;5096524;28;20052;-84
2022/03/28 08:13:02;;;;;;;22.88;11.45;;;;;;;;;;5095942;28;20048;-84
2022/03/28 08:15:47;;;;;;;19.75;11.50;;;;;;;;;;5096510;28;20040;-85
2022/03/28 08:18:36;;;;;;;24.30;11.05;;;;;;;;;;5102113;28;20043;-83
2022/03/28 08:21:22;;;;;;;25.77;12.13;;;;;;;;;;5096211;28;20424;-84
2022/03/28 08:24:07;;;;;;;19.45;11.38;;;;;;;;;;5096367;28;20048;-82
2022/03/28 08:26:53;;;;;;;21.15;10.60;;;;;;;;;;5102307;28;20056;-84
2022/03/28 08:29:38;;;;;;;19.40;10.88;;;;;;;;;;5096256;28;20051;-83
2022/03/28 08:32:24;;;;;;;23.42;11.75;;;;;;;;;;5094797;28;20036;-84
2022/03/28 08:35:10;;;;;;;22.17;11.60;;;;;;;;;;5080881;28;20044;-84
2022/03/28 08:37:56;;;;;;;22.45;12.10;;;;;;;;;;5077592;28;20396;-83
2022/03/28 08:40:43;;;;;;;21.30;12.20;;;;;;;;;;5094747;28;20056;-85
2022/03/28 08:43:28;;;;;;;17.48;10.30;;;;;;;;;;5086661;28;20047;-84
2022/03/28 08:46:16;;;;;;;23.83;11.52;;;;;;;;;;5085490;28;20480;-83
2022/03/28 08:49:01;;;;;;;24.42;8.88;;;;;;;;;;5067062;28;20040;-83
2022/03/28 08:51:47;;;;;;;16.60;5.93;;;;;;;;;;5100756;28;20040;-83
2022/03/28 08:54:33;;;;;;;18.88;5.72;;;;;;;;;;5091242;28;20400;-82
2022/03/28 08:57:18;;;;;;;7.10;4.28;;;;;;;;;;5085759;28;20056;-81
2022/03/28 09:00:06;;;;;;;13.07;5.53;;;;;;;;;;5075005;28;20044;-83
2022/03/28 09:02:56;;;;;;;10.75;5.20;;;;;;;;;;5074923;28;20048;-82
2022/03/28 09:05:42;;;;;;;12.63;5.95;;;;;;;;;;5095972;28;20480;-82
2022/03/28 09:08:37;;;;;;;7.82;4.40;;;;;;;;;;5101474;28;20044;-82
2022/03/28 09:11:22;;;;;;;7.88;4.25;;;;;;;;;;5101960;28;20472;-83
2022/03/28 09:14:10;;;;;;;6.57;3.90;;;;;;;;;;5102858;28;20400;-82
2022/03/28 09:17:05;;;;;;;7.22;4.22;;;;;;;;;;5108937;28;20044;-81
2022/03/28 09:20:04;;;;;;;12.27;5.15;;;;;;;;;;5090714;28;20045;-79
2022/03/28 09:22:50;;;;;;;8.10;5.15;;;;;;;;;;5097917;28;20472;-82
2022/03/28 09:25:50;;;;;;;5.53;4.15;;;;;;;;;;5092905;28;20048;-83
2022/03/28 09:28:45;;;;;;;15.18;7.35;;;;;;;;;;5101525;28;20040;-84
2022/03/28 09:31:44;;;;;;;8.13;4.40;;;;;;;;;;5083005;28;20036;-80
2022/03/28 09:34:30;;;;;;;32.33;10.77;;;;;;;;;;5092362;28;20044;-81
2022/03/28 09:37:15;;;;;;;8.88;5.53;;;;;;;;;;5086248;28;20044;-81
2022/03/28 09:40:21;;;;;;;15.43;5.13;;;;;;;;;;5094471;28;20082;-82
2022/03/28 09:43:19;;;;;;;8.13;4.45;;;;;;;;;;5095132;28;20052;-82
2022/03/28 09:46:05;;;;;;;9.15;4.22;;;;;;;;;;5074389;28;20056;-81
2022/03/28 09:48:50;;;;;;;10.63;4.38;;;;;;;;;;5084384;28;20499;-82
2022/03/28 09:51:36;;;;;;;26.27;4.75;;;;;;;;;;5100854;28;20052;-81
2022/03/28 09:54:24;;;;;;;9.25;4.55;;;;;;;;;;5107450;28;20048;-81
2022/03/28 09:57:13;;;;;;;7.00;4.22;;;;;;;;;;5100636;28;20040;-80
2022/03/28 10:00:08;;;;;;;13.18;4.18;;;;;;;;;;5101069;28;20048;-81
2022/03/28 10:02:55;;;;;;;11.90;4.13;;;;;;;;;;5094632;28;20041;-83
2022/03/28 10:05:41;;;;;;;6.75;3.88;;;;;;;;;;5092468;28;20481;-84
2022/03/28 10:08:30;;;;;;;10.48;4.03;;;;;;;;;;5080339;28;20052;-84
2022/03/28 10:11:17;;;;;;;8.80;4.28;;;;;;;;;;5093661;28;20051;-82
2022/03/28 10:14:02;;;;;;;10.02;3.95;;;;;;;;;;5098417;28;20084;-83
2022/03/28 10:16:49;;;;;;;8.38;4.68;;;;;;;;;;5073776;28;20488;-84
2022/03/28 10:19:38;;;;;;;9.90;4.60;;;;;;;;;;5082215;28;20044;-83
2022/03/28 10:22:33;;;;;;;10.68;3.97;;;;;;;;;;5076275;28;20044;-82
2022/03/28 10:25:22;;;;;;;10.10;4.18;;;;;;;;;;5085921;28;20055;-82
2022/03/28 10:28:09;;;;;;;12.85;4.40;;;;;;;;;;5093569;28;20484;-83
2022/03/28 10:31:15;;;;;;;5.55;4.07;;;;;;;;;;5092656;28;20044;-82
2022/03/28 10:34:03;;;;;;;6.60;4.07;;;;;;;;;;5093229;28;20044;-82
2022/03/28 10:36:48;;;;;;;12.55;3.95;;;;;;;;;;5086673;28;20052;-82
2022/03/28 10:39:37;;;;;;;10.02;4.75;;;;;;;;;;5098949;28;20469;-82
2022/03/28 10:42:26;;;;;;;8.23;4.72;;;;;;;;;;5092392;28;20491;-83
2022/03/28 10:45:16;;;;;;;6.65;3.78;;;;;;;;;;5093669;28;20056;-83
2022/03/28 10:48:02;;;;;;;7.40;4.35;;;;;;;;;;5081612;28;20044;-84
2022/03/28 10:50:53;;;;;;;9.85;4.40;;;;;;;;;;5093859;28;20047;-82
2022/03/28 10:53:42;;;;;;;17.23;5.20;;;;;;;;;;5080783;28;20044;-83
2022/03/28 10:56:32;;;;;;;6.00;3.80;;;;;;;;;;5078869;28;20048;-83
2022/03/28 10:59:21;;;;;;;8.88;4.72;;;;;;;;;;5083318;28;20048;-84
2022/03/28 11:02:27;;;;;;;11.63;4.97;;;;;;;;;;5092590;28;20032;-83
2022/03/28 11:05:14;;;;;;;7.25;3.88;;;;;;;;;;5080988;28;20493;-82
2022/03/28 11:08:29;;;;;;;14.45;4.70;;;;;;;;;;5090359;28;20040;-82
2022/03/28 11:11:32;;;;;;;11.95;5.13;;;;;;;;;;5100137;28;20044;-84
2022/03/28 11:14:17;;;;;;;8.32;4.60;;;;;;;;;;5099702;28;20048;-82
2022/03/28 11:17:32;;;;;;;11.15;4.40;;;;;;;;;;5099790;28;20056;-82
2022/03/28 11:20:18;;;;;;;8.73;4.27;;;;;;;;;;5086807;28;20665;-82
2022/03/28 11:23:06;;;;;;;9.13;4.95;;;;;;;;;;5075040;28;20057;-82
2022/03/28 11:25:55;;;;;;;11.85;4.78;;;;;;;;;;5077720;28;20044;-83
2022/03/28 11:28:41;;;;;;;9.73;4.65;;;;;;;;;;5083175;28;20473;-83
2022/03/28 11:31:26;;;;;;;8.55;4.85;;;;;;;;;;5089311;28;20044;-83
2022/03/28 11:34:11;;;;;;;10.35;5.00;;;;;;;;;;5092962;28;20044;-83
2022/03/28 11:36:58;;;;;;;9.38;5.43;;;;;;;;;;5084763;28;20480;-82
2022/03/28 11:40:00;;;;;;;11.05;5.43;;;;;;;;;;5084910;28;20048;-84
2022/03/28 11:42:49;;;;;;;7.78;5.00;;;;;;;;;;5076256;28;20048;-83
2022/03/28 11:45:36;;;;;;;8.45;5.00;;;;;;;;;;5090151;28;20053;-85
2022/03/28 11:48:21;;;;;;;22.80;5.70;;;;;;;;;;5092851;28;20044;-85
2022/03/28 11:51:15;;;;;;;10.40;4.78;;;;;;;;;;5092835;28;20477;-83
2022/03/28 11:54:08;;;;;;;9.87;5.00;;;;;;;;;;5087123;28;20040;-82
2022/03/28 11:59:57;;;;;;;14.15;5.43;;;;;;;;;;5099569;28;20036;-82
2022/03/28 12:02:53;;;;;;;9.20;5.03;;;;;;;;;;5100739;28;20757;-83
2022/03/28 12:05:44;;;;;;;9.45;5.90;;;;;;;;;;5095579;28;20051;-84
2022/03/28 12:08:32;;;;;;;8.63;4.97;;;;;;;;;;5097752;28;20051;-82
2022/03/28 12:11:17;;;;;;;8.57;5.07;;;;;;;;;;5096711;28;20044;-81
2022/03/28 12:14:03;;;;;;;17.23;5.30;;;;;;;;;;5102716;28;20044;-82
2022/03/28 12:16:50;;;;;;;10.27;4.70;;;;;;;;;;5094408;28;20047;-84
2022/03/28 12:19:35;;;;;;;9.73;4.50;;;;;;;;;;5075564;28;20045;-83
2022/03/28 12:22:23;;;;;;;9.43;5.40;;;;;;;;;;5094564;28;20435;-83
2022/03/28 12:25:22;;;;;;;11.90;5.15;;;;;;;;;;5102755;28;20056;-84
2022/03/28 12:28:11;;;;;;;9.38;4.70;;;;;;;;;;5095985;28;20048;-83
2022/03/28 12:30:59;;;;;;;10.57;5.28;;;;;;;;;;5094289;28;20048;-84
2022/03/28 12:33:47;;;;;;;8.40;4.78;;;;;;;;;;5087607;28;20040;-84
2022/03/28 12:36:34;;;;;;;9.73;4.78;;;;;;;;;;5067766;28;20049;-81
2022/03/28 12:39:20;;;;;;;9.07;4.50;;;;;;;;;;5085696;28;20048;-81
2022/03/28 12:42:05;;;;;;;11.40;5.25;;;;;;;;;;5060259;28;20040;-81
2022/03/28 12:44:53;;;;;;;13.48;5.47;;;;;;;;;;5075336;28;20472;-81
2022/03/28 12:47:40;;;;;;;12.60;5.57;;;;;;;;;;5082512;28;20049;-80
2022/03/28 12:50:26;;;;;;;13.45;5.20;;;;;;;;;;5075529;28;20045;-80
2022/03/28 12:53:14;;;;;;;8.40;4.70;;;;;;;;;;5082054;28;20048;-82
2022/03/28 12:56:15;;;;;;;10.85;4.80;;;;;;;;;;5071974;28;20044;-81
2022/03/28 12:59:03;;;;;;;9.55;5.15;;;;;;;;;;5100407;28;20048;-80
2022/03/28 13:01:49;;;;;;;8.10;4.85;;;;;;;;;;5089568;28;20044;-80
2022/03/28 13:04:49;;;;;;;11.35;5.40;;;;;;;;;;5094975;28;20114;-80
2022/03/28 13:07:39;;;;;;;10.60;4.88;;;;;;;;;;5081519;28;20052;-81
2022/03/28 13:10:24;;;;;;;10.38;5.60;;;;;;;;;;5081770;28;20053;-81
2022/03/28 13:13:10;;;;;;;8.63;4.85;;;;;;;;;;5081238;28;20037;-81
2022/03/28 13:15:56;;;;;;;11.57;5.50;;;;;;;;;;5059523;28;20161;-82
2022/03/28 13:18:41;;;;;;;10.00;5.05;;;;;;;;;;5081366;28;20048;-79
2022/03/28 13:21:30;;;;;;;13.02;4.80;;;;;;;;;;5065774;28;20044;-82
2022/03/28 13:24:15;;;;;;;11.52;4.82;;;;;;;;;;5080498;28;20385;-80
2022/03/28 13:30:24;;;;;;;10.32;5.20;;;;;;;;;;5098380;28;20028;-83
2022/03/28 13:33:11;;;;;;;10.07;4.75;;;;;;;;;;5085942;28;20052;-81
2022/03/28 13:35:57;;;;;;;13.23;6.32;;;;;;;;;;5101429;28;20032;-81
2022/03/28 13:38:43;;;;;;;12.10;5.45;;;;;;;;;;5085484;28;20404;-80
2022/03/28 13:41:28;;;;;;;21.70;6.10;;;;;;;;;;5092084;28;20297;-81
2022/03/28 13:44:14;;;;;;;13.50;6.13;;;;;;;;;;5089946;28;20056;-80
2022/03/28 13:46:59;;;;;;;12.30;5.53;;;;;;;;;;5076425;28;20044;-81
2022/03/28 13:49:45;;;;;;;13.65;6.68;;;;;;;;;;5088076;28;20048;-80
2022/03/28 13:52:30;;;;;;;10.82;5.30;;;;;;;;;;5074706;28;20048;-80
2022/03/28 13:55:17;;;;;;;11.50;6.47;;;;;;;;;;5074134;28;20037;-81
2022/03/28 13:58:04;;;;;;;15.95;6.07;;;;;;;;;;5081022;28;20044;-81
2022/03/28 14:01:02;;;;;;;15.60;6.45;;;;;;;;;;5096675;28;20040;-80
2022/03/28 14:03:51;;;;;;;12.30;6.03;;;;;;;;;;5112058;28;20040;-79
2022/03/28 14:06:45;;;;;;;13.23;6.03;;;;;;;;;;5094604;28;20048;-80
2022/03/28 14:09:35;;;;;;;20.00;6.65;;;;;;;;;;5085182;28;20040;-81
2022/03/28 14:12:30;;;;;;;12.52;6.53;;;;;;;;;;5098162;28;20404;-81
2022/03/28 14:15:15;;;;;;;10.65;5.30;;;;;;;;;;5087849;28;20036;-81
2022/03/28 14:18:04;;;;;;;12.10;5.85;;;;;;;;;;5083273;28;20052;-80
2022/03/28 14:20:49;;;;;;;11.70;5.80;;;;;;;;;;5055376;28;20052;-80
2022/03/28 14:23:34;;;;;;;12.30;6.43;;;;;;;;;;5084482;28;20040;-80
2022/03/28 14:26:22;;;;;;;13.73;6.63;;;;;;;;;;5080588;28;20048;-80
2022/03/28 14:29:10;;;;;;;14.02;6.40;;;;;;;;;;5090602;28;20047;-81
2022/03/28 14:31:56;;;;;;;11.70;6.32;;;;;;;;;;5063449;28;20396;-81
2022/03/28 14:34:46;;;;;;;16.35;5.82;;;;;;;;;;5092565;28;20044;-81
2022/03/28 14:37:34;;;;;;;15.15;6.38;;;;;;;;;;5078832;28;20052;-81
2022/03/28 14:40:31;;;;;;;12.95;6.03;;;;;;;;;;5094136;28;20048;-81
2022/03/28 14:43:22;;;;;;;11.82;5.90;;;;;;;;;;5088415;28;20072;-82
2022/03/28 14:49:14;;;;;;;28.80;6.32;;;;;;;;;;5109878;28;20044;-80
2022/03/28 14:52:26;;;;;;;11.18;5.97;;;;;;;;;;5097242;28;20036;-81
2022/03/28 14:55:12;;;;;;;15.27;5.95;;;;;;;;;;5101009;28;20044;-80
2022/03/28 14:57:58;;;;;;;12.75;5.80;;;;;;;;;;5093217;28;20453;-81
2022/03/28 15:00:44;;;;;;;14.60;6.40;;;;;;;;;;5100366;28;20044;-81
2022/03/28 15:03:29;;;;;;;12.13;6.40;;;;;;;;;;5093542;28;20048;-80
2022/03/28 15:06:14;;;;;;;18.35;6.70;;;;;;;;;;5083560;28;20052;-80
2022/03/28 15:09:00;;;;;;;16.48;6.07;;;;;;;;;;5080054;28;20036;-79
2022/03/28 15:11:46;;;;;;;14.60;6.55;;;;;;;;;;5079440;28;20044;-79
2022/03/28 15:14:32;;;;;;;9.68;5.35;;;;;;;;;;5080136;28;20484;-81
2022/03/28 15:17:18;;;;;;;18.73;6.32;;;;;;;;;;5086793;28;20372;-82
2022/03/28 15:20:04;;;;;;;16.05;6.82;;;;;;;;;;5083638;28;20048;-83
2022/03/28 15:22:53;;;;;;;17.48;7.80;;;;;;;;;;5084451;28;20496;-82
2022/03/28 15:25:39;;;;;;;33.67;8.35;;;;;;;;;;5092833;28;20604;-84
2022/03/28 15:28:25;;;;;;;42.60;10.15;;;;;;;;;;5094613;28;20048;-83
2022/03/28 15:31:24;;;;;;;36.80;11.15;;;;;;;;;;5090754;28;20047;-82
2022/03/28 15:34:12;;;;;;;42.53;20.73;;;;;;;;;;5095580;28;20484;-81
2022/03/28 15:36:59;;;;;;;40.95;20.45;;;;;;;;;;5103909;28;20480;-81
2022/03/28 15:39:44;;;;;;;29.85;13.85;;;;;;;;;;5096146;28;20388;-81
2022/03/28 15:42:32;;;;;;;26.05;13.35;;;;;;;;;;5097029;28;20052;-78
2022/03/28 15:45:18;;;;;;;23.60;12.77;;;;;;;;;;5083643;28;20044;-79
2022/03/28 15:48:03;;;;;;;23.83;12.23;;;;;;;;;;5089437;28;20083;-78
2022/03/28 15:50:51;;;;;;;26.23;12.60;;;;;;;;;;5086829;28;20044;-80
2022/03/28 15:53:37;;;;;;;26.33;14.15;;;;;;;;;;5094509;28;20047;-80
2022/03/28 15:56:23;;;;;;;26.88;14.15;;;;;;;;;;5089908;28;20044;-82
2022/03/28 15:59:09;;;;;;;28.30;13.48;;;;;;;;;;5090513;28;20473;-82
2022/03/28 16:01:55;;;;;;;27.75;13.70;;;;;;;;;;5095683;28;20416;-83
2022/03/28 16:04:41;;;;;;;32.55;15.65;;;;;;;;;;5083627;28;20048;-83
2022/03/28 16:07:26;;;;;;;35.50;16.90;;;;;;;;;;5075881;28;20037;-82
2022/03/28 16:10:13;;;;;;;40.60;20.85;;;;;;;;;;5095822;28;20044;-83
2022/03/28 16:12:59;;;;;;;35.33;18.13;;;;;;;;;;5086465;28;20048;-85
2022/03/28 16:15:44;;;;;;;38.35;17.88;;;;;;;;;;5095424;28;20032;-82
2022/03/28 16:18:30;;;;;;;37.65;18.27;;;;;;;;;;5103002;28;20400;-82
2022/03/28 16:21:16;;;;;;;32.08;17.20;;;;;;;;;;5094176;28;20047;-83
2022/03/28 16:24:01;;;;;;;40.78;18.00;;;;;;;;;;5093421;28;20047;-83
2022/03/28 16:26:46;;;;;;;47.72;20.30;;;;;;;;;;5096269;28;20044;-83
2022/03/28 16:29:32;;;;;;;54.67;26.38;;;;;;;;;;5087260;28;20051;-83
2022/03/28 16:32:20;;;;;;;54.35;29.42;;;;;;;;;;5095977;28;20040;-83